sensor_id;sensor_type;location;lat;lon;timestamp;temperature;humidity
7566;DHT22;3824;48.010;7.832;2022-11-03T00:01:02;9.20;99.90
7566;DHT22;3824;48.010;7.832;2022-11-03T00:03:29;9.20;99.90
7566;DHT22;3824;48.010;7.832;2022-11-03T00:05:57;9.20;99.90
7566;DHT22;3824;48.010;7.832;2022-11-03T00:08:35;9.20;99.90
7566;DHT22;3824;48.010;7.832;2022-11-03T00:11:04;9.10;99.90
7566;DHT22;3824;48.010;7.832;2022-11-03T00:13:31;9.30;99.90
7566;DHT22;3824;48.010;7.832;2022-11-03T00:15:58;10.10;99.90
7566;DHT22;3824;48.010;7.832;2022-11-03T00:18:25;9.00;99.90
7566;DHT22;3824;48.010;7.832;2022-11-03T00:20:58;8.90;99.90
7566;DHT22;3824;48.010;7.832;2022-11-03T00:23:26;8.80;99.90
7566;DHT22;3824;48.010;7.832;2022-11-03T00:25:54;8.80;99.90
7566;DHT22;3824;48.010;7.832;2022-11-03T00:28:21;8.70;99.90
7566;DHT22;3824;48.010;7.832;2022-11-03T00:30:48;8.70;99.90
7566;DHT22;3824;48.010;7.832;2022-11-03T00:33:14;8.60;99.90
7566;DHT22;3824;48.010;7.832;2022-11-03T00:35:41;8.60;99.90
7566;DHT22;3824;48.010;7.832;2022-11-03T00:38:09;8.60;99.90
7566;DHT22;3824;48.010;7.832;2022-11-03T00:40:36;8.60;99.90
7566;DHT22;3824;48.010;7.832;2022-11-03T00:43:03;8.50;99.90
7566;DHT22;3824;48.010;7.832;2022-11-03T00:45:30;8.50;99.90
7566;DHT22;3824;48.010;7.832;2022-11-03T00:47:56;8.50;99.90
7566;DHT22;3824;48.010;7.832;2022-11-03T00:50:41;8.40;99.90
7566;DHT22;3824;48.010;7.832;2022-11-03T00:53:09;8.40;99.90
7566;DHT22;3824;48.010;7.832;2022-11-03T00:55:36;8.30;99.90
7566;DHT22;3824;48.010;7.832;2022-11-03T00:58:03;8.30;99.90
7566;DHT22;3824;48.010;7.832;2022-11-03T01:00:29;8.30;99.90
7566;DHT22;3824;48.010;7.832;2022-11-03T01:02:56;8.20;99.90
7566;DHT22;3824;48.010;7.832;2022-11-03T01:05:23;8.20;99.90
7566;DHT22;3824;48.010;7.832;2022-11-03T01:08:08;8.20;99.90
7566;DHT22;3824;48.010;7.832;2022-11-03T01:10:36;8.20;99.90
7566;DHT22;3824;48.010;7.832;2022-11-03T01:13:24;8.20;99.90
7566;DHT22;3824;48.010;7.832;2022-11-03T01:15:51;8.10;99.90
7566;DHT22;3824;48.010;7.832;2022-11-03T01:18:18;8.10;99.90
7566;DHT22;3824;48.010;7.832;2022-11-03T01:20:45;8.10;99.90
7566;DHT22;3824;48.010;7.832;2022-11-03T01:23:13;8.10;99.90
7566;DHT22;3824;48.010;7.832;2022-11-03T01:25:40;8.10;99.90
7566;DHT22;3824;48.010;7.832;2022-11-03T01:28:06;8.00;99.90
7566;DHT22;3824;48.010;7.832;2022-11-03T01:30:33;8.00;99.90
7566;DHT22;3824;48.010;7.832;2022-11-03T01:33:00;8.00;99.90
7566;DHT22;3824;48.010;7.832;2022-11-03T01:35:27;8.00;99.90
7566;DHT22;3824;48.010;7.832;2022-11-03T01:37:54;8.00;99.90
7566;DHT22;3824;48.010;7.832;2022-11-03T01:40:23;8.00;99.90
7566;DHT22;3824;48.010;7.832;2022-11-03T01:42:50;7.90;99.90
7566;DHT22;3824;48.010;7.832;2022-11-03T01:45:17;7.90;99.90
7566;DHT22;3824;48.010;7.832;2022-11-03T01:47:45;8.00;99.90
7566;DHT22;3824;48.010;7.832;2022-11-03T01:50:17;7.90;99.90
7566;DHT22;3824;48.010;7.832;2022-11-03T01:52:47;7.90;99.90
7566;DHT22;3824;48.010;7.832;2022-11-03T01:55:18;7.80;99.90
7566;DHT22;3824;48.010;7.832;2022-11-03T01:57:50;7.80;99.90
7566;DHT22;3824;48.010;7.832;2022-11-03T02:00:20;7.80;99.90
7566;DHT22;3824;48.010;7.832;2022-11-03T02:02:47;7.80;99.90
7566;DHT22;3824;48.010;7.832;2022-11-03T02:05:15;7.70;99.90
7566;DHT22;3824;48.010;7.832;2022-11-03T02:07:48;7.70;99.90
7566;DHT22;3824;48.010;7.832;2022-11-03T02:10:16;7.70;99.90
7566;DHT22;3824;48.010;7.832;2022-11-03T02:12:43;7.70;99.90
7566;DHT22;3824;48.010;7.832;2022-11-03T02:15:13;7.60;99.90
7566;DHT22;3824;48.010;7.832;2022-11-03T02:17:41;7.60;99.90
7566;DHT22;3824;48.010;7.832;2022-11-03T02:20:12;7.60;99.90
7566;DHT22;3824;48.010;7.832;2022-11-03T02:23:01;8.50;99.90
7566;DHT22;3824;48.010;7.832;2022-11-03T02:25:41;7.40;99.90
7566;DHT22;3824;48.010;7.832;2022-11-03T02:28:08;7.40;99.90
7566;DHT22;3824;48.010;7.832;2022-11-03T02:30:41;7.30;99.90
7566;DHT22;3824;48.010;7.832;2022-11-03T02:33:13;7.30;99.90
7566;DHT22;3824;48.010;7.832;2022-11-03T02:35:47;7.30;99.90
7566;DHT22;3824;48.010;7.832;2022-11-03T02:38:19;7.20;99.90
7566;DHT22;3824;48.010;7.832;2022-11-03T02:40:52;7.20;99.90
7566;DHT22;3824;48.010;7.832;2022-11-03T02:43:21;7.20;99.90
7566;DHT22;3824;48.010;7.832;2022-11-03T02:45:50;7.20;99.90
7566;DHT22;3824;48.010;7.832;2022-11-03T02:48:18;7.10;99.90
7566;DHT22;3824;48.010;7.832;2022-11-03T02:50:46;7.20;99.90
7566;DHT22;3824;48.010;7.832;2022-11-03T02:53:14;7.20;99.90
7566;DHT22;3824;48.010;7.832;2022-11-03T02:55:49;7.20;99.90
7566;DHT22;3824;48.010;7.832;2022-11-03T02:58:21;7.30;99.90
7566;DHT22;3824;48.010;7.832;2022-11-03T03:00:55;7.30;99.90
7566;DHT22;3824;48.010;7.832;2022-11-03T03:03:27;7.50;99.90
7566;DHT22;3824;48.010;7.832;2022-11-03T03:06:02;7.40;99.90
7566;DHT22;3824;48.010;7.832;2022-11-03T03:08:32;7.40;99.90
7566;DHT22;3824;48.010;7.832;2022-11-03T03:11:02;7.40;99.90
7566;DHT22;3824;48.010;7.832;2022-11-03T03:13:31;7.40;99.90
7566;DHT22;3824;48.010;7.832;2022-11-03T03:16:06;9.30;99.90
7566;DHT22;3824;48.010;7.832;2022-11-03T03:18:44;7.30;99.90
7566;DHT22;3824;48.010;7.832;2022-11-03T03:21:18;7.30;99.90
7566;DHT22;3824;48.010;7.832;2022-11-03T03:23:49;7.30;99.90
7566;DHT22;3824;48.010;7.832;2022-11-03T03:26:21;7.30;99.90
7566;DHT22;3824;48.010;7.832;2022-11-03T03:28:53;7.30;99.90
7566;DHT22;3824;48.010;7.832;2022-11-03T03:31:23;7.30;99.90
7566;DHT22;3824;48.010;7.832;2022-11-03T03:33:53;7.30;99.90
7566;DHT22;3824;48.010;7.832;2022-11-03T03:36:23;7.80;99.90
7566;DHT22;3824;48.010;7.832;2022-11-03T03:38:54;8.60;99.90
7566;DHT22;3824;48.010;7.832;2022-11-03T03:41:23;7.30;99.90
7566;DHT22;3824;48.010;7.832;2022-11-03T03:43:54;7.30;99.90
7566;DHT22;3824;48.010;7.832;2022-11-03T03:46:23;7.80;99.90
7566;DHT22;3824;48.010;7.832;2022-11-03T03:48:52;8.90;99.90
7566;DHT22;3824;48.010;7.832;2022-11-03T03:51:22;8.90;99.90
7566;DHT22;3824;48.010;7.832;2022-11-03T03:53:51;7.30;99.90
7566;DHT22;3824;48.010;7.832;2022-11-03T03:56:24;7.30;99.90
7566;DHT22;3824;48.010;7.832;2022-11-03T03:58:52;7.30;99.90
7566;DHT22;3824;48.010;7.832;2022-11-03T04:01:19;7.30;99.90
7566;DHT22;3824;48.010;7.832;2022-11-03T04:03:45;7.30;99.90
7566;DHT22;3824;48.010;7.832;2022-11-03T04:06:13;7.40;99.90
7566;DHT22;3824;48.010;7.832;2022-11-03T04:08:40;7.30;99.90
7566;DHT22;3824;48.010;7.832;2022-11-03T04:11:07;7.40;99.90
7566;DHT22;3824;48.010;7.832;2022-11-03T04:13:52;7.60;99.90
7566;DHT22;3824;48.010;7.832;2022-11-03T04:16:36;7.80;99.90
7566;DHT22;3824;48.010;7.832;2022-11-03T04:19:21;7.90;99.90
7566;DHT22;3824;48.010;7.832;2022-11-03T04:22:06;8.10;99.90
7566;DHT22;3824;48.010;7.832;2022-11-03T04:24:42;8.30;99.90
7566;DHT22;3824;48.010;7.832;2022-11-03T04:27:27;8.50;99.90
7566;DHT22;3824;48.010;7.832;2022-11-03T04:30:00;8.60;99.90
7566;DHT22;3824;48.010;7.832;2022-11-03T04:32:28;8.60;99.90
7566;DHT22;3824;48.010;7.832;2022-11-03T04:34:55;8.70;99.90
7566;DHT22;3824;48.010;7.832;2022-11-03T04:37:26;8.60;99.90
7566;DHT22;3824;48.010;7.832;2022-11-03T04:39:56;8.50;99.90
7566;DHT22;3824;48.010;7.832;2022-11-03T04:42:24;8.40;99.90
7566;DHT22;3824;48.010;7.832;2022-11-03T04:44:51;8.30;99.90
7566;DHT22;3824;48.010;7.832;2022-11-03T04:47:20;8.30;99.90
7566;DHT22;3824;48.010;7.832;2022-11-03T04:49:47;8.40;99.90
7566;DHT22;3824;48.010;7.832;2022-11-03T04:52:16;8.70;99.90
7566;DHT22;3824;48.010;7.832;2022-11-03T04:54:46;9.00;99.90
7566;DHT22;3824;48.010;7.832;2022-11-03T04:57:15;8.70;99.90
7566;DHT22;3824;48.010;7.832;2022-11-03T04:59:46;8.60;99.90
7566;DHT22;3824;48.010;7.832;2022-11-03T05:02:17;8.70;99.90
7566;DHT22;3824;48.010;7.832;2022-11-03T05:04:46;8.70;99.90
7566;DHT22;3824;48.010;7.832;2022-11-03T05:07:22;8.70;99.90
7566;DHT22;3824;48.010;7.832;2022-11-03T05:09:51;8.70;99.90
7566;DHT22;3824;48.010;7.832;2022-11-03T05:12:18;8.60;99.90
7566;DHT22;3824;48.010;7.832;2022-11-03T05:14:46;8.60;99.90
7566;DHT22;3824;48.010;7.832;2022-11-03T05:17:22;8.50;99.90
7566;DHT22;3824;48.010;7.832;2022-11-03T05:19:53;8.60;99.90
7566;DHT22;3824;48.010;7.832;2022-11-03T05:22:21;8.60;99.90
7566;DHT22;3824;48.010;7.832;2022-11-03T05:24:51;8.50;99.90
7566;DHT22;3824;48.010;7.832;2022-11-03T05:27:21;8.40;99.90
7566;DHT22;3824;48.010;7.832;2022-11-03T05:29:50;8.50;99.90
7566;DHT22;3824;48.010;7.832;2022-11-03T05:32:21;8.20;99.90
7566;DHT22;3824;48.010;7.832;2022-11-03T05:34:51;8.20;99.90
7566;DHT22;3824;48.010;7.832;2022-11-03T05:37:25;8.30;99.90
7566;DHT22;3824;48.010;7.832;2022-11-03T05:39:54;8.40;99.90
7566;DHT22;3824;48.010;7.832;2022-11-03T05:42:29;8.40;99.90
7566;DHT22;3824;48.010;7.832;2022-11-03T05:44:57;8.40;99.90
7566;DHT22;3824;48.010;7.832;2022-11-03T05:47:30;8.50;99.90
7566;DHT22;3824;48.010;7.832;2022-11-03T05:50:10;8.60;99.90
7566;DHT22;3824;48.010;7.832;2022-11-03T05:52:39;8.60;99.90
7566;DHT22;3824;48.010;7.832;2022-11-03T05:55:23;8.70;99.90
7566;DHT22;3824;48.010;7.832;2022-11-03T05:57:51;8.70;99.90
7566;DHT22;3824;48.010;7.832;2022-11-03T06:00:24;8.90;99.90
7566;DHT22;3824;48.010;7.832;2022-11-03T06:02:53;8.70;99.90
7566;DHT22;3824;48.010;7.832;2022-11-03T06:05:23;8.60;99.90
7566;DHT22;3824;48.010;7.832;2022-11-03T06:07:53;8.60;99.90
7566;DHT22;3824;48.010;7.832;2022-11-03T06:10:26;8.60;99.90
7566;DHT22;3824;48.010;7.832;2022-11-03T06:12:56;8.70;99.90
7566;DHT22;3824;48.010;7.832;2022-11-03T06:15:28;8.70;99.90
7566;DHT22;3824;48.010;7.832;2022-11-03T06:17:56;8.70;99.90
7566;DHT22;3824;48.010;7.832;2022-11-03T06:20:25;8.70;99.90
7566;DHT22;3824;48.010;7.832;2022-11-03T06:22:54;8.70;99.90
7566;DHT22;3824;48.010;7.832;2022-11-03T06:25:26;8.60;99.90
7566;DHT22;3824;48.010;7.832;2022-11-03T06:27:55;8.40;99.90
7566;DHT22;3824;48.010;7.832;2022-11-03T06:30:25;8.20;99.90
7566;DHT22;3824;48.010;7.832;2022-11-03T06:32:52;8.00;99.90
7566;DHT22;3824;48.010;7.832;2022-11-03T06:35:21;11.60;99.90
7566;DHT22;3824;48.010;7.832;2022-11-03T06:37:49;7.80;99.90
7566;DHT22;3824;48.010;7.832;2022-11-03T06:40:31;7.80;99.90
7566;DHT22;3824;48.010;7.832;2022-11-03T06:43:04;8.60;99.90
7566;DHT22;3824;48.010;7.832;2022-11-03T06:45:36;8.10;99.90
7566;DHT22;3824;48.010;7.832;2022-11-03T06:48:06;8.20;99.90
7566;DHT22;3824;48.010;7.832;2022-11-03T06:50:34;8.30;99.90
7566;DHT22;3824;48.010;7.832;2022-11-03T06:53:04;8.30;99.90
7566;DHT22;3824;48.010;7.832;2022-11-03T06:55:32;8.30;99.90
7566;DHT22;3824;48.010;7.832;2022-11-03T06:58:03;8.20;99.90
7566;DHT22;3824;48.010;7.832;2022-11-03T07:00:37;8.20;99.90
7566;DHT22;3824;48.010;7.832;2022-11-03T07:03:07;8.10;99.90
7566;DHT22;3824;48.010;7.832;2022-11-03T07:05:37;8.30;99.90
7566;DHT22;3824;48.010;7.832;2022-11-03T07:08:17;8.30;99.90
7566;DHT22;3824;48.010;7.832;2022-11-03T07:10:47;8.30;99.90
7566;DHT22;3824;48.010;7.832;2022-11-03T07:13:19;8.20;99.90
7566;DHT22;3824;48.010;7.832;2022-11-03T07:15:48;8.10;99.90
7566;DHT22;3824;48.010;7.832;2022-11-03T07:18:19;8.20;99.90
7566;DHT22;3824;48.010;7.832;2022-11-03T07:20:48;8.30;99.90
7566;DHT22;3824;48.010;7.832;2022-11-03T07:23:19;8.40;99.90
7566;DHT22;3824;48.010;7.832;2022-11-03T07:25:50;8.40;99.90
7566;DHT22;3824;48.010;7.832;2022-11-03T07:28:17;8.40;99.90
7566;DHT22;3824;48.010;7.832;2022-11-03T07:30:45;8.40;99.90
7566;DHT22;3824;48.010;7.832;2022-11-03T07:33:15;8.30;99.90
7566;DHT22;3824;48.010;7.832;2022-11-03T07:35:44;8.80;99.90
7566;DHT22;3824;48.010;7.832;2022-11-03T07:38:14;8.70;99.90
7566;DHT22;3824;48.010;7.832;2022-11-03T07:40:43;8.80;99.90
7566;DHT22;3824;48.010;7.832;2022-11-03T07:43:14;8.80;99.90
7566;DHT22;3824;48.010;7.832;2022-11-03T07:45:47;8.80;99.90
7566;DHT22;3824;48.010;7.832;2022-11-03T07:48:19;8.80;99.90
7566;DHT22;3824;48.010;7.832;2022-11-03T07:50:46;8.80;99.90
7566;DHT22;3824;48.010;7.832;2022-11-03T07:53:19;8.80;99.90
7566;DHT22;3824;48.010;7.832;2022-11-03T07:55:48;8.90;99.90
7566;DHT22;3824;48.010;7.832;2022-11-03T07:58:22;9.00;99.90
7566;DHT22;3824;48.010;7.832;2022-11-03T08:00:53;9.20;99.90
7566;DHT22;3824;48.010;7.832;2022-11-03T08:03:31;9.30;99.90
7566;DHT22;3824;48.010;7.832;2022-11-03T08:05:58;9.40;99.90
7566;DHT22;3824;48.010;7.832;2022-11-03T08:08:25;9.70;99.90
7566;DHT22;3824;48.010;7.832;2022-11-03T08:10:53;9.80;99.90
7566;DHT22;3824;48.010;7.832;2022-11-03T08:13:20;9.90;99.90
7566;DHT22;3824;48.010;7.832;2022-11-03T08:15:47;10.00;99.90
7566;DHT22;3824;48.010;7.832;2022-11-03T08:18:13;10.20;99.90
7566;DHT22;3824;48.010;7.832;2022-11-03T08:20:40;10.40;99.90
7566;DHT22;3824;48.010;7.832;2022-11-03T08:23:07;10.60;99.90
7566;DHT22;3824;48.010;7.832;2022-11-03T08:25:36;10.50;99.90
7566;DHT22;3824;48.010;7.832;2022-11-03T08:28:04;10.60;99.90
7566;DHT22;3824;48.010;7.832;2022-11-03T08:30:31;10.70;99.90
7566;DHT22;3824;48.010;7.832;2022-11-03T08:32:58;10.90;99.90
7566;DHT22;3824;48.010;7.832;2022-11-03T08:35:25;11.00;99.90
7566;DHT22;3824;48.010;7.832;2022-11-03T08:37:52;11.00;99.90
7566;DHT22;3824;48.010;7.832;2022-11-03T08:40:19;11.10;99.90
7566;DHT22;3824;48.010;7.832;2022-11-03T08:42:46;11.20;99.90
7566;DHT22;3824;48.010;7.832;2022-11-03T08:45:15;11.60;99.90
7566;DHT22;3824;48.010;7.832;2022-11-03T08:47:42;11.20;99.90
7566;DHT22;3824;48.010;7.832;2022-11-03T08:50:09;11.30;99.90
7566;DHT22;3824;48.010;7.832;2022-11-03T08:52:36;11.40;99.90
7566;DHT22;3824;48.010;7.832;2022-11-03T08:55:04;11.40;99.90
7566;DHT22;3824;48.010;7.832;2022-11-03T08:57:30;11.50;99.90
7566;DHT22;3824;48.010;7.832;2022-11-03T08:59:57;11.60;99.90
7566;DHT22;3824;48.010;7.832;2022-11-03T09:02:25;11.80;99.90
7566;DHT22;3824;48.010;7.832;2022-11-03T09:04:52;11.90;99.90
7566;DHT22;3824;48.010;7.832;2022-11-03T09:07:19;12.10;99.90
7566;DHT22;3824;48.010;7.832;2022-11-03T09:09:46;12.40;99.90
7566;DHT22;3824;48.010;7.832;2022-11-03T09:12:13;12.40;99.90
7566;DHT22;3824;48.010;7.832;2022-11-03T09:14:40;12.60;99.90
7566;DHT22;3824;48.010;7.832;2022-11-03T09:17:07;12.80;99.90
7566;DHT22;3824;48.010;7.832;2022-11-03T09:19:35;12.90;99.90
7566;DHT22;3824;48.010;7.832;2022-11-03T09:22:02;13.20;99.90
7566;DHT22;3824;48.010;7.832;2022-11-03T09:24:29;13.30;99.90
7566;DHT22;3824;48.010;7.832;2022-11-03T09:26:56;13.50;99.90
7566;DHT22;3824;48.010;7.832;2022-11-03T09:29:23;13.60;99.90
7566;DHT22;3824;48.010;7.832;2022-11-03T09:31:49;13.70;99.90
7566;DHT22;3824;48.010;7.832;2022-11-03T09:34:16;13.60;99.90
7566;DHT22;3824;48.010;7.832;2022-11-03T09:36:44;13.60;99.90
7566;DHT22;3824;48.010;7.832;2022-11-03T09:39:11;13.60;99.90
7566;DHT22;3824;48.010;7.832;2022-11-03T09:41:38;13.60;99.90
7566;DHT22;3824;48.010;7.832;2022-11-03T09:44:05;13.50;99.90
7566;DHT22;3824;48.010;7.832;2022-11-03T09:46:32;13.50;99.90
7566;DHT22;3824;48.010;7.832;2022-11-03T09:49:01;13.50;99.90
7566;DHT22;3824;48.010;7.832;2022-11-03T09:51:29;13.50;99.90
7566;DHT22;3824;48.010;7.832;2022-11-03T09:54:02;13.50;99.90
7566;DHT22;3824;48.010;7.832;2022-11-03T09:56:30;13.50;99.90
7566;DHT22;3824;48.010;7.832;2022-11-03T09:58:58;13.50;99.90
7566;DHT22;3824;48.010;7.832;2022-11-03T10:01:25;13.60;99.90
7566;DHT22;3824;48.010;7.832;2022-11-03T10:03:56;13.50;99.90
7566;DHT22;3824;48.010;7.832;2022-11-03T10:06:24;13.80;99.90
7566;DHT22;3824;48.010;7.832;2022-11-03T10:08:51;13.60;99.90
7566;DHT22;3824;48.010;7.832;2022-11-03T10:11:20;13.50;99.90
7566;DHT22;3824;48.010;7.832;2022-11-03T10:13:51;15.30;99.90
7566;DHT22;3824;48.010;7.832;2022-11-03T10:16:21;13.50;99.90
7566;DHT22;3824;48.010;7.832;2022-11-03T10:18:49;13.50;99.90
7566;DHT22;3824;48.010;7.832;2022-11-03T10:21:18;13.50;99.90
7566;DHT22;3824;48.010;7.832;2022-11-03T10:23:45;13.70;99.90
7566;DHT22;3824;48.010;7.832;2022-11-03T10:26:15;13.90;99.90
7566;DHT22;3824;48.010;7.832;2022-11-03T10:28:57;13.80;99.90
7566;DHT22;3824;48.010;7.832;2022-11-03T10:31:32;13.90;99.90
7566;DHT22;3824;48.010;7.832;2022-11-03T10:33:59;13.90;99.90
7566;DHT22;3824;48.010;7.832;2022-11-03T10:36:27;14.00;99.90
7566;DHT22;3824;48.010;7.832;2022-11-03T10:38:55;13.90;99.90
7566;DHT22;3824;48.010;7.832;2022-11-03T10:41:23;13.90;99.90
7566;DHT22;3824;48.010;7.832;2022-11-03T10:44:03;14.00;99.90
7566;DHT22;3824;48.010;7.832;2022-11-03T10:46:31;13.90;99.90
7566;DHT22;3824;48.010;7.832;2022-11-03T10:49:03;13.90;99.90
7566;DHT22;3824;48.010;7.832;2022-11-03T10:51:31;13.70;99.90
7566;DHT22;3824;48.010;7.832;2022-11-03T10:53:59;13.70;99.90
7566;DHT22;3824;48.010;7.832;2022-11-03T10:56:27;13.60;99.90
7566;DHT22;3824;48.010;7.832;2022-11-03T10:58:54;13.80;99.90
7566;DHT22;3824;48.010;7.832;2022-11-03T11:01:23;13.70;99.90
7566;DHT22;3824;48.010;7.832;2022-11-03T11:03:50;13.80;99.90
7566;DHT22;3824;48.010;7.832;2022-11-03T11:06:18;13.80;99.90
7566;DHT22;3824;48.010;7.832;2022-11-03T11:08:47;13.80;99.90
7566;DHT22;3824;48.010;7.832;2022-11-03T11:11:16;13.80;99.90
7566;DHT22;3824;48.010;7.832;2022-11-03T11:13:43;13.80;99.90
7566;DHT22;3824;48.010;7.832;2022-11-03T11:16:48;13.80;99.90
7566;DHT22;3824;48.010;7.832;2022-11-03T11:19:16;13.80;99.90
7566;DHT22;3824;48.010;7.832;2022-11-03T11:22:13;13.90;99.90
7566;DHT22;3824;48.010;7.832;2022-11-03T11:24:59;14.00;99.90
7566;DHT22;3824;48.010;7.832;2022-11-03T11:31:01;14.10;99.90
7566;DHT22;3824;48.010;7.832;2022-11-03T11:33:31;14.10;99.90
7566;DHT22;3824;48.010;7.832;2022-11-03T11:38:58;14.00;99.90
7566;DHT22;3824;48.010;7.832;2022-11-03T11:44:49;13.90;99.90
7566;DHT22;3824;48.010;7.832;2022-11-03T11:47:21;13.90;99.90
7566;DHT22;3824;48.010;7.832;2022-11-03T11:50:25;13.90;99.90
7566;DHT22;3824;48.010;7.832;2022-11-03T11:53:12;14.00;99.90
7566;DHT22;3824;48.010;7.832;2022-11-03T11:55:41;14.00;99.90
7566;DHT22;3824;48.010;7.832;2022-11-03T11:58:17;14.00;99.90
7566;DHT22;3824;48.010;7.832;2022-11-03T12:00:56;14.10;99.90
7566;DHT22;3824;48.010;7.832;2022-11-03T12:03:37;14.10;99.90
7566;DHT22;3824;48.010;7.832;2022-11-03T12:06:06;14.00;99.90
7566;DHT22;3824;48.010;7.832;2022-11-03T12:08:34;14.00;99.90
7566;DHT22;3824;48.010;7.832;2022-11-03T12:11:02;14.10;99.90
7566;DHT22;3824;48.010;7.832;2022-11-03T12:13:44;14.20;99.90
7566;DHT22;3824;48.010;7.832;2022-11-03T12:16:30;14.30;99.90
7566;DHT22;3824;48.010;7.832;2022-11-03T12:19:33;14.50;99.90
7566;DHT22;3824;48.010;7.832;2022-11-03T12:22:01;14.40;99.90
7566;DHT22;3824;48.010;7.832;2022-11-03T12:24:38;14.40;99.90
7566;DHT22;3824;48.010;7.832;2022-11-03T12:27:41;14.40;99.90
7566;DHT22;3824;48.010;7.832;2022-11-03T12:30:13;14.40;99.90
7566;DHT22;3824;48.010;7.832;2022-11-03T12:32:40;14.40;99.90
7566;DHT22;3824;48.010;7.832;2022-11-03T12:35:08;14.50;99.90
7566;DHT22;3824;48.010;7.832;2022-11-03T12:37:37;14.50;99.90
7566;DHT22;3824;48.010;7.832;2022-11-03T12:40:05;14.60;99.90
7566;DHT22;3824;48.010;7.832;2022-11-03T12:42:32;14.50;99.90
7566;DHT22;3824;48.010;7.832;2022-11-03T12:44:59;14.50;99.90
7566;DHT22;3824;48.010;7.832;2022-11-03T12:47:26;14.60;99.90
7566;DHT22;3824;48.010;7.832;2022-11-03T12:49:53;14.60;99.90
7566;DHT22;3824;48.010;7.832;2022-11-03T12:52:20;14.60;99.90
7566;DHT22;3824;48.010;7.832;2022-11-03T12:54:48;14.50;99.90
7566;DHT22;3824;48.010;7.832;2022-11-03T12:57:15;14.50;99.90
7566;DHT22;3824;48.010;7.832;2022-11-03T12:59:42;14.50;99.90
7566;DHT22;3824;48.010;7.832;2022-11-03T13:02:09;14.60;99.90
7566;DHT22;3824;48.010;7.832;2022-11-03T13:04:36;14.60;99.90
7566;DHT22;3824;48.010;7.832;2022-11-03T13:07:03;14.70;99.90
7566;DHT22;3824;48.010;7.832;2022-11-03T13:09:30;14.80;99.90
7566;DHT22;3824;48.010;7.832;2022-11-03T13:11:58;14.90;99.90
7566;DHT22;3824;48.010;7.832;2022-11-03T13:14:42;15.00;99.90
7566;DHT22;3824;48.010;7.832;2022-11-03T13:17:09;15.00;99.90
7566;DHT22;3824;48.010;7.832;2022-11-03T13:19:36;15.00;99.90
7566;DHT22;3824;48.010;7.832;2022-11-03T13:22:02;15.10;99.90
7566;DHT22;3824;48.010;7.832;2022-11-03T13:24:29;15.10;99.90
7566;DHT22;3824;48.010;7.832;2022-11-03T13:26:57;15.20;99.90
7566;DHT22;3824;48.010;7.832;2022-11-03T13:29:24;15.20;99.90
7566;DHT22;3824;48.010;7.832;2022-11-03T13:31:51;15.30;99.90
7566;DHT22;3824;48.010;7.832;2022-11-03T13:34:18;15.50;99.90
7566;DHT22;3824;48.010;7.832;2022-11-03T13:36:45;15.30;99.90
7566;DHT22;3824;48.010;7.832;2022-11-03T13:39:11;15.30;99.90
7566;DHT22;3824;48.010;7.832;2022-11-03T13:41:38;15.40;99.90
7566;DHT22;3824;48.010;7.832;2022-11-03T13:44:06;15.20;99.90
7566;DHT22;3824;48.010;7.832;2022-11-03T13:46:34;15.20;99.90
7566;DHT22;3824;48.010;7.832;2022-11-03T13:49:01;15.10;99.90
7566;DHT22;3824;48.010;7.832;2022-11-03T13:51:28;15.10;99.90
7566;DHT22;3824;48.010;7.832;2022-11-03T13:53:55;15.00;99.90
7566;DHT22;3824;48.010;7.832;2022-11-03T13:56:21;15.00;99.90
7566;DHT22;3824;48.010;7.832;2022-11-03T13:58:48;14.90;99.90
7566;DHT22;3824;48.010;7.832;2022-11-03T14:01:17;14.90;99.90
7566;DHT22;3824;48.010;7.832;2022-11-03T14:03:43;14.90;99.90
7566;DHT22;3824;48.010;7.832;2022-11-03T14:06:10;14.80;99.90
7566;DHT22;3824;48.010;7.832;2022-11-03T14:08:37;14.90;99.90
7566;DHT22;3824;48.010;7.832;2022-11-03T14:11:04;14.80;99.90
7566;DHT22;3824;48.010;7.832;2022-11-03T14:13:45;14.90;99.90
7566;DHT22;3824;48.010;7.832;2022-11-03T14:16:12;14.90;99.90
7566;DHT22;3824;48.010;7.832;2022-11-03T14:18:40;15.00;99.90
7566;DHT22;3824;48.010;7.832;2022-11-03T14:21:07;15.00;99.90
7566;DHT22;3824;48.010;7.832;2022-11-03T14:23:34;15.10;99.90
7566;DHT22;3824;48.010;7.832;2022-11-03T14:26:01;15.00;99.90
7566;DHT22;3824;48.010;7.832;2022-11-03T14:28:27;15.00;99.90
7566;DHT22;3824;48.010;7.832;2022-11-03T14:30:54;15.00;99.90
7566;DHT22;3824;48.010;7.832;2022-11-03T14:33:24;15.00;99.90
7566;DHT22;3824;48.010;7.832;2022-11-03T14:35:53;15.00;99.90
7566;DHT22;3824;48.010;7.832;2022-11-03T14:38:19;15.00;99.90
7566;DHT22;3824;48.010;7.832;2022-11-03T14:40:46;14.90;99.90
7566;DHT22;3824;48.010;7.832;2022-11-03T14:43:31;14.90;99.90
7566;DHT22;3824;48.010;7.832;2022-11-03T14:45:57;14.90;99.90
7566;DHT22;3824;48.010;7.832;2022-11-03T14:48:24;14.90;99.90
7566;DHT22;3824;48.010;7.832;2022-11-03T14:50:52;14.80;99.90
7566;DHT22;3824;48.010;7.832;2022-11-03T14:53:19;14.80;99.90
7566;DHT22;3824;48.010;7.832;2022-11-03T14:55:46;14.70;99.90
7566;DHT22;3824;48.010;7.832;2022-11-03T14:58:13;14.70;99.90
7566;DHT22;3824;48.010;7.832;2022-11-03T15:00:39;14.70;99.90
7566;DHT22;3824;48.010;7.832;2022-11-03T15:03:06;14.60;99.90
7566;DHT22;3824;48.010;7.832;2022-11-03T15:05:33;14.60;99.90
7566;DHT22;3824;48.010;7.832;2022-11-03T15:08:11;14.60;99.90
7566;DHT22;3824;48.010;7.832;2022-11-03T15:10:38;14.60;99.90
7566;DHT22;3824;48.010;7.832;2022-11-03T15:13:05;14.60;99.90
7566;DHT22;3824;48.010;7.832;2022-11-03T15:15:31;14.60;99.90
7566;DHT22;3824;48.010;7.832;2022-11-03T15:18:00;14.50;99.90
7566;DHT22;3824;48.010;7.832;2022-11-03T15:20:26;14.50;99.90
7566;DHT22;3824;48.010;7.832;2022-11-03T15:22:53;14.60;99.90
7566;DHT22;3824;48.010;7.832;2022-11-03T15:25:21;14.30;99.90
7566;DHT22;3824;48.010;7.832;2022-11-03T15:27:48;14.30;99.90
7566;DHT22;3824;48.010;7.832;2022-11-03T15:30:15;14.20;99.90
7566;DHT22;3824;48.010;7.832;2022-11-03T15:32:43;14.10;99.90
7566;DHT22;3824;48.010;7.832;2022-11-03T15:35:10;14.40;99.90
7566;DHT22;3824;48.010;7.832;2022-11-03T15:37:36;14.00;99.90
7566;DHT22;3824;48.010;7.832;2022-11-03T15:40:04;14.10;99.90
7566;DHT22;3824;48.010;7.832;2022-11-03T15:42:33;13.90;99.90
7566;DHT22;3824;48.010;7.832;2022-11-03T15:45:00;13.80;99.90
7566;DHT22;3824;48.010;7.832;2022-11-03T15:47:27;13.70;99.90
7566;DHT22;3824;48.010;7.832;2022-11-03T15:49:54;13.70;99.90
7566;DHT22;3824;48.010;7.832;2022-11-03T15:52:21;13.70;99.90
7566;DHT22;3824;48.010;7.832;2022-11-03T15:54:47;13.60;99.90
7566;DHT22;3824;48.010;7.832;2022-11-03T15:57:16;13.60;99.90
7566;DHT22;3824;48.010;7.832;2022-11-03T15:59:44;13.60;99.90
7566;DHT22;3824;48.010;7.832;2022-11-03T16:02:11;13.60;99.90
7566;DHT22;3824;48.010;7.832;2022-11-03T16:04:38;13.70;99.90
7566;DHT22;3824;48.010;7.832;2022-11-03T16:07:04;13.70;99.90
7566;DHT22;3824;48.010;7.832;2022-11-03T16:09:31;13.70;99.90
7566;DHT22;3824;48.010;7.832;2022-11-03T16:11:58;13.70;99.90
7566;DHT22;3824;48.010;7.832;2022-11-03T16:14:25;13.80;99.90
7566;DHT22;3824;48.010;7.832;2022-11-03T16:16:53;13.80;99.90
7566;DHT22;3824;48.010;7.832;2022-11-03T16:19:21;13.80;99.90
7566;DHT22;3824;48.010;7.832;2022-11-03T16:21:48;13.70;99.90
7566;DHT22;3824;48.010;7.832;2022-11-03T16:24:15;13.60;99.90
7566;DHT22;3824;48.010;7.832;2022-11-03T16:26:42;13.50;99.90
7566;DHT22;3824;48.010;7.832;2022-11-03T16:29:09;13.40;99.90
7566;DHT22;3824;48.010;7.832;2022-11-03T16:31:35;13.40;99.90
7566;DHT22;3824;48.010;7.832;2022-11-03T16:34:04;13.40;99.90
7566;DHT22;3824;48.010;7.832;2022-11-03T16:36:31;13.40;99.90